sensor_id;sensor_type;location;lat;lon;timestamp;pressure;altitude;pressure_sealevel;temperature;humidity
21821;BME280;11073;48.586;12.066;2023-06-10T00:00:00;96115.03;;;20.71;53.07
21821;BME280;11073;48.586;12.066;2023-06-10T00:02:58;96113.75;;;20.68;53.14
21821;BME280;11073;48.586;12.066;2023-06-10T00:05:49;96102.84;;;20.63;52.99
21821;BME280;11073;48.586;12.066;2023-06-10T00:08:38;96090.09;;;20.45;53.13
21821;BME280;11073;48.586;12.066;2023-06-10T00:11:27;96105.53;;;20.54;53.26
21821;BME280;11073;48.586;12.066;2023-06-10T00:14:17;96106.97;;;20.52;53.23
21821;BME280;11073;48.586;12.066;2023-06-10T00:17:07;96108.09;;;20.51;53.16
21821;BME280;11073;48.586;12.066;2023-06-10T00:19:57;96086.13;;;20.37;53.50
21821;BME280;11073;48.586;12.066;2023-06-10T00:22:48;96106.88;;;20.43;53.39
21821;BME280;11073;48.586;12.066;2023-06-10T00:25:36;96106.66;;;20.39;53.64
21821;BME280;11073;48.586;12.066;2023-06-10T00:28:26;96103.59;;;20.41;53.75
21821;BME280;11073;48.586;12.066;2023-06-10T00:31:16;96104.41;;;20.42;53.47
21821;BME280;11073;48.586;12.066;2023-06-10T00:34:06;96103.59;;;20.41;53.65
21821;BME280;11073;48.586;12.066;2023-06-10T00:36:55;96101.16;;;20.39;53.41
21821;BME280;11073;48.586;12.066;2023-06-10T00:39:46;96103.72;;;20.36;53.41
21821;BME280;11073;48.586;12.066;2023-06-10T00:42:35;96103.84;;;20.31;53.78
21821;BME280;11073;48.586;12.066;2023-06-10T00:45:24;96101.00;;;20.22;53.71
21821;BME280;11073;48.586;12.066;2023-06-10T00:48:13;96106.13;;;20.15;53.62
21821;BME280;11073;48.586;12.066;2023-06-10T00:51:03;96099.41;;;20.07;53.87
21821;BME280;11073;48.586;12.066;2023-06-10T00:53:54;96099.00;;;20.00;54.00
21821;BME280;11073;48.586;12.066;2023-06-10T00:56:44;96096.97;;;19.92;54.33
21821;BME280;11073;48.586;12.066;2023-06-10T00:59:34;96095.47;;;19.86;54.27
21821;BME280;11073;48.586;12.066;2023-06-10T01:02:41;96098.78;;;19.83;54.60
21821;BME280;11073;48.586;12.066;2023-06-10T01:05:30;96094.84;;;19.75;54.25
21821;BME280;11073;48.586;12.066;2023-06-10T01:08:25;96094.22;;;19.65;54.59
21821;BME280;11073;48.586;12.066;2023-06-10T01:11:25;96099.00;;;19.59;54.67
21821;BME280;11073;48.586;12.066;2023-06-10T01:14:18;96100.69;;;19.55;55.00
21821;BME280;11073;48.586;12.066;2023-06-10T01:17:08;96107.91;;;19.51;55.27
21821;BME280;11073;48.586;12.066;2023-06-10T01:19:59;96095.78;;;19.38;55.50
21821;BME280;11073;48.586;12.066;2023-06-10T01:22:51;96099.25;;;19.30;55.36
21821;BME280;11073;48.586;12.066;2023-06-10T01:25:47;96089.78;;;19.22;55.73
21821;BME280;11073;48.586;12.066;2023-06-10T01:28:40;96098.00;;;19.22;55.97
21821;BME280;11073;48.586;12.066;2023-06-10T01:31:36;96090.41;;;19.19;56.23
21821;BME280;11073;48.586;12.066;2023-06-10T01:34:28;96096.38;;;19.21;55.97
21821;BME280;11073;48.586;12.066;2023-06-10T01:37:22;96092.22;;;19.24;56.25
21821;BME280;11073;48.586;12.066;2023-06-10T01:40:13;96097.41;;;19.25;56.32
21821;BME280;11073;48.586;12.066;2023-06-10T01:43:03;96093.03;;;19.24;56.33
21821;BME280;11073;48.586;12.066;2023-06-10T01:45:52;96100.25;;;19.20;56.21
21821;BME280;11073;48.586;12.066;2023-06-10T01:48:42;96097.19;;;19.22;56.49
21821;BME280;11073;48.586;12.066;2023-06-10T01:51:31;96100.94;;;19.26;56.37
21821;BME280;11073;48.586;12.066;2023-06-10T01:54:20;96104.50;;;19.26;56.32
21821;BME280;11073;48.586;12.066;2023-06-10T01:57:11;96106.66;;;19.29;56.28
21821;BME280;11073;48.586;12.066;2023-06-10T02:00:01;96107.56;;;19.25;55.86
21821;BME280;11073;48.586;12.066;2023-06-10T02:03:01;96106.84;;;19.19;56.27
21821;BME280;11073;48.586;12.066;2023-06-10T02:05:50;96111.31;;;19.15;55.98
21821;BME280;11073;48.586;12.066;2023-06-10T02:08:40;96112.50;;;19.09;56.32
21821;BME280;11073;48.586;12.066;2023-06-10T02:11:29;96112.06;;;19.02;56.33
21821;BME280;11073;48.586;12.066;2023-06-10T02:14:20;96093.88;;;18.92;56.20
21821;BME280;11073;48.586;12.066;2023-06-10T02:17:10;96105.78;;;19.01;56.38
21821;BME280;11073;48.586;12.066;2023-06-10T02:20:03;96104.53;;;18.94;56.27
21821;BME280;11073;48.586;12.066;2023-06-10T02:22:59;96110.41;;;18.87;56.57
21821;BME280;11073;48.586;12.066;2023-06-10T02:25:49;96109.16;;;18.80;56.69
21821;BME280;11073;48.586;12.066;2023-06-10T02:28:42;96102.94;;;18.74;56.47
21821;BME280;11073;48.586;12.066;2023-06-10T02:31:34;96101.63;;;18.71;56.72
21821;BME280;11073;48.586;12.066;2023-06-10T02:34:24;96100.00;;;18.70;56.82
21821;BME280;11073;48.586;12.066;2023-06-10T02:37:14;96109.38;;;18.64;57.04
21821;BME280;11073;48.586;12.066;2023-06-10T02:40:05;96112.34;;;18.68;57.00
21821;BME280;11073;48.586;12.066;2023-06-10T02:42:55;96117.31;;;18.66;57.34
21821;BME280;11073;48.586;12.066;2023-06-10T02:45:44;96116.78;;;18.64;57.36
21821;BME280;11073;48.586;12.066;2023-06-10T02:48:41;96117.00;;;18.67;57.56
21821;BME280;11073;48.586;12.066;2023-06-10T02:51:33;96113.28;;;18.58;57.52
21821;BME280;11073;48.586;12.066;2023-06-10T02:54:24;96117.97;;;18.58;57.66
21821;BME280;11073;48.586;12.066;2023-06-10T02:57:15;96122.03;;;18.60;57.64
21821;BME280;11073;48.586;12.066;2023-06-10T03:00:06;96120.91;;;18.61;57.58
21821;BME280;11073;48.586;12.066;2023-06-10T03:03:00;96119.38;;;18.55;57.75
21821;BME280;11073;48.586;12.066;2023-06-10T03:05:58;96122.41;;;18.54;57.86
21821;BME280;11073;48.586;12.066;2023-06-10T03:08:48;96123.31;;;18.49;57.61
21821;BME280;11073;48.586;12.066;2023-06-10T03:11:39;96125.53;;;18.47;57.76
21821;BME280;11073;48.586;12.066;2023-06-10T03:14:28;96120.56;;;18.49;57.70
21821;BME280;11073;48.586;12.066;2023-06-10T03:17:18;96124.94;;;18.50;57.69
21821;BME280;11073;48.586;12.066;2023-06-10T03:20:09;96121.13;;;18.46;57.66
21821;BME280;11073;48.586;12.066;2023-06-10T03:23:02;96125.59;;;18.42;57.88
21821;BME280;11073;48.586;12.066;2023-06-10T03:25:51;96121.28;;;18.36;58.05
21821;BME280;11073;48.586;12.066;2023-06-10T03:28:40;96128.19;;;18.33;57.92
21821;BME280;11073;48.586;12.066;2023-06-10T03:31:29;96117.91;;;18.25;57.96
21821;BME280;11073;48.586;12.066;2023-06-10T03:34:19;96115.97;;;18.26;58.00
21821;BME280;11073;48.586;12.066;2023-06-10T03:37:09;96122.03;;;18.23;57.96
21821;BME280;11073;48.586;12.066;2023-06-10T03:39:59;96122.63;;;18.19;57.98
21821;BME280;11073;48.586;12.066;2023-06-10T03:42:50;96133.28;;;18.21;58.30
21821;BME280;11073;48.586;12.066;2023-06-10T03:45:39;96130.25;;;18.23;58.13
21821;BME280;11073;48.586;12.066;2023-06-10T03:48:30;96129.13;;;18.24;58.17
21821;BME280;11073;48.586;12.066;2023-06-10T03:51:20;96133.22;;;18.26;58.26
21821;BME280;11073;48.586;12.066;2023-06-10T03:54:10;96141.94;;;18.28;58.16
21821;BME280;11073;48.586;12.066;2023-06-10T03:57:01;96134.84;;;18.27;58.60
21821;BME280;11073;48.586;12.066;2023-06-10T03:59:50;96134.03;;;18.27;58.43
21821;BME280;11073;48.586;12.066;2023-06-10T04:02:40;96133.28;;;18.21;58.48
21821;BME280;11073;48.586;12.066;2023-06-10T04:05:41;96133.03;;;18.17;58.44
21821;BME280;11073;48.586;12.066;2023-06-10T04:08:32;96135.25;;;18.15;58.71
21821;BME280;11073;48.586;12.066;2023-06-10T04:11:21;96146.28;;;18.10;58.91
21821;BME280;11073;48.586;12.066;2023-06-10T04:14:12;96142.22;;;18.08;58.95
21821;BME280;11073;48.586;12.066;2023-06-10T04:17:03;96142.22;;;18.08;59.05
21821;BME280;11073;48.586;12.066;2023-06-10T04:19:56;96132.22;;;17.98;59.17
21821;BME280;11073;48.586;12.066;2023-06-10T04:22:46;96144.75;;;18.04;59.17
21821;BME280;11073;48.586;12.066;2023-06-10T04:25:36;96146.66;;;18.04;59.04
21821;BME280;11073;48.586;12.066;2023-06-10T04:28:25;96145.59;;;18.00;59.27
21821;BME280;11073;48.586;12.066;2023-06-10T04:31:17;96144.44;;;18.06;59.31
21821;BME280;11073;48.586;12.066;2023-06-10T04:34:07;96155.09;;;18.07;59.22
21821;BME280;11073;48.586;12.066;2023-06-10T04:36:56;96148.50;;;18.08;59.34
21821;BME280;11073;48.586;12.066;2023-06-10T04:39:45;96149.00;;;18.10;59.46
21821;BME280;11073;48.586;12.066;2023-06-10T04:42:35;96149.25;;;18.14;59.49
21821;BME280;11073;48.586;12.066;2023-06-10T04:45:24;96154.13;;;18.17;59.43
21821;BME280;11073;48.586;12.066;2023-06-10T04:48:15;96159.06;;;18.20;59.52
21821;BME280;11073;48.586;12.066;2023-06-10T04:51:04;96163.13;;;18.23;59.71
21821;BME280;11073;48.586;12.066;2023-06-10T04:53:54;96162.53;;;18.26;59.71
21821;BME280;11073;48.586;12.066;2023-06-10T04:56:44;96158.91;;;18.30;59.68
21821;BME280;11073;48.586;12.066;2023-06-10T04:59:33;96167.56;;;18.37;59.62
21821;BME280;11073;48.586;12.066;2023-06-10T05:02:25;96161.22;;;18.42;59.80
21821;BME280;11073;48.586;12.066;2023-06-10T05:05:16;96157.38;;;18.43;59.81
21821;BME280;11073;48.586;12.066;2023-06-10T05:08:05;96163.06;;;18.46;59.71
21821;BME280;11073;48.586;12.066;2023-06-10T05:10:55;96157.81;;;18.50;59.87
21821;BME280;11073;48.586;12.066;2023-06-10T05:13:44;96171.16;;;18.57;59.89
21821;BME280;11073;48.586;12.066;2023-06-10T05:16:33;96161.81;;;18.58;60.01
21821;BME280;11073;48.586;12.066;2023-06-10T05:19:22;96169.66;;;18.69;60.03
21821;BME280;11073;48.586;12.066;2023-06-10T05:22:12;96173.63;;;18.77;60.23
21821;BME280;11073;48.586;12.066;2023-06-10T05:25:04;96178.75;;;18.84;60.13
21821;BME280;11073;48.586;12.066;2023-06-10T05:27:53;96187.19;;;18.87;60.00
21821;BME280;11073;48.586;12.066;2023-06-10T05:30:43;96175.63;;;18.90;60.49
21821;BME280;11073;48.586;12.066;2023-06-10T05:33:31;96183.47;;;18.97;60.36
21821;BME280;11073;48.586;12.066;2023-06-10T05:36:20;96176.28;;;19.01;60.40
21821;BME280;11073;48.586;12.066;2023-06-10T05:39:11;96178.03;;;19.11;60.58
21821;BME280;11073;48.586;12.066;2023-06-10T05:42:00;96185.06;;;19.17;60.60
21821;BME280;11073;48.586;12.066;2023-06-10T05:44:50;96186.13;;;19.21;60.69
21821;BME280;11073;48.586;12.066;2023-06-10T05:47:40;96185.19;;;19.25;60.52
21821;BME280;11073;48.586;12.066;2023-06-10T05:50:29;96178.81;;;19.30;60.93
21821;BME280;11073;48.586;12.066;2023-06-10T05:53:18;96183.94;;;19.37;60.89
21821;BME280;11073;48.586;12.066;2023-06-10T05:56:09;96177.25;;;19.43;61.11
21821;BME280;11073;48.586;12.066;2023-06-10T05:58:59;96178.78;;;19.49;61.24
21821;BME280;11073;48.586;12.066;2023-06-10T06:01:48;96179.97;;;19.43;61.57
21821;BME280;11073;48.586;12.066;2023-06-10T06:04:37;96174.19;;;19.44;61.94
21821;BME280;11073;48.586;12.066;2023-06-10T06:07:26;96171.75;;;19.43;62.20
21821;BME280;11073;48.586;12.066;2023-06-10T06:10:16;96178.44;;;19.37;62.54
21821;BME280;11073;48.586;12.066;2023-06-10T06:13:07;96179.16;;;19.42;62.29
21821;BME280;11073;48.586;12.066;2023-06-10T06:15:56;96175.72;;;19.50;62.67
21821;BME280;11073;48.586;12.066;2023-06-10T06:18:45;96185.22;;;19.58;62.30
21821;BME280;11073;48.586;12.066;2023-06-10T06:21:33;96168.69;;;19.63;62.15
21821;BME280;11073;48.586;12.066;2023-06-10T06:24:23;96175.69;;;19.69;62.29
21821;BME280;11073;48.586;12.066;2023-06-10T06:27:12;96169.50;;;19.77;62.19
21821;BME280;11073;48.586;12.066;2023-06-10T06:30:03;96178.66;;;19.87;61.85
21821;BME280;11073;48.586;12.066;2023-06-10T06:32:53;96174.41;;;19.94;61.62
21821;BME280;11073;48.586;12.066;2023-06-10T06:35:43;96178.97;;;19.99;61.04
21821;BME280;11073;48.586;12.066;2023-06-10T06:38:32;96176.84;;;19.96;61.32
21821;BME280;11073;48.586;12.066;2023-06-10T06:41:21;96167.06;;;19.90;61.09
21821;BME280;11073;48.586;12.066;2023-06-10T06:44:10;96184.25;;;19.95;61.31
21821;BME280;11073;48.586;12.066;2023-06-10T06:47:05;96170.63;;;19.90;61.33
21821;BME280;11073;48.586;12.066;2023-06-10T06:49:55;96175.72;;;19.97;61.31
21821;BME280;11073;48.586;12.066;2023-06-10T06:52:44;96179.69;;;20.04;61.64
21821;BME280;11073;48.586;12.066;2023-06-10T06:55:33;96180.50;;;20.05;61.13
21821;BME280;11073;48.586;12.066;2023-06-10T06:58:22;96174.91;;;20.10;60.63
21821;BME280;11073;48.586;12.066;2023-06-10T07:01:11;96180.31;;;20.15;60.73
21821;BME280;11073;48.586;12.066;2023-06-10T07:04:01;96180.72;;;20.22;60.30
21821;BME280;11073;48.586;12.066;2023-06-10T07:06:30;96186.28;;;20.31;60.44
21821;BME280;11073;48.586;12.066;2023-06-10T07:09:01;96194.44;;;20.36;59.81
21821;BME280;11073;48.586;12.066;2023-06-10T07:11:30;96190.25;;;20.38;59.58
21821;BME280;11073;48.586;12.066;2023-06-10T07:13:58;96200.34;;;20.43;59.82
21821;BME280;11073;48.586;12.066;2023-06-10T07:16:27;96194.75;;;20.48;59.48
21821;BME280;11073;48.586;12.066;2023-06-10T07:18:56;96202.72;;;20.50;59.53
21821;BME280;11073;48.586;12.066;2023-06-10T07:21:26;96202.97;;;20.62;59.21
21821;BME280;11073;48.586;12.066;2023-06-10T07:23:55;96202.13;;;20.75;59.35
21821;BME280;11073;48.586;12.066;2023-06-10T07:26:24;96215.16;;;20.83;58.95
21821;BME280;11073;48.586;12.066;2023-06-10T07:28:52;96205.59;;;20.81;58.86
21821;BME280;11073;48.586;12.066;2023-06-10T07:31:23;96210.25;;;20.94;58.92
21821;BME280;11073;48.586;12.066;2023-06-10T07:33:51;96207.13;;;21.09;58.59
21821;BME280;11073;48.586;12.066;2023-06-10T07:36:20;96205.44;;;21.22;58.63
21821;BME280;11073;48.586;12.066;2023-06-10T07:38:50;96205.56;;;21.31;57.64
21821;BME280;11073;48.586;12.066;2023-06-10T07:41:18;96200.72;;;21.36;57.60
21821;BME280;11073;48.586;12.066;2023-06-10T07:43:48;96201.25;;;21.38;57.05
21821;BME280;11073;48.586;12.066;2023-06-10T07:46:22;96208.91;;;21.50;56.49
21821;BME280;11073;48.586;12.066;2023-06-10T07:48:51;96211.59;;;21.64;56.33
21821;BME280;11073;48.586;12.066;2023-06-10T07:51:20;96210.69;;;21.77;56.00
21821;BME280;11073;48.586;12.066;2023-06-10T07:53:50;96194.53;;;21.84;55.70
21821;BME280;11073;48.586;12.066;2023-06-10T07:56:19;96217.94;;;21.95;55.08
21821;BME280;11073;48.586;12.066;2023-06-10T07:58:48;96193.41;;;21.85;55.07
21821;BME280;11073;48.586;12.066;2023-06-10T08:01:17;96213.59;;;22.03;54.53
21821;BME280;11073;48.586;12.066;2023-06-10T08:03:46;96221.13;;;22.11;54.35
21821;BME280;11073;48.586;12.066;2023-06-10T08:06:14;96218.56;;;22.23;54.13
21821;BME280;11073;48.586;12.066;2023-06-10T08:08:44;96209.06;;;22.38;53.95
21821;BME280;11073;48.586;12.066;2023-06-10T08:11:15;96218.84;;;22.53;53.66
21821;BME280;11073;48.586;12.066;2023-06-10T08:13:43;96222.59;;;22.66;52.96
21821;BME280;11073;48.586;12.066;2023-06-10T08:16:12;96219.88;;;22.74;52.43
21821;BME280;11073;48.586;12.066;2023-06-10T08:18:41;96224.41;;;22.79;52.54
21821;BME280;11073;48.586;12.066;2023-06-10T08:21:10;96223.81;;;22.91;52.15
21821;BME280;11073;48.586;12.066;2023-06-10T08:23:38;96226.44;;;23.13;52.18
21821;BME280;11073;48.586;12.066;2023-06-10T08:26:07;96220.56;;;23.32;51.66
21821;BME280;11073;48.586;12.066;2023-06-10T08:28:37;96222.50;;;23.57;51.26
21821;BME280;11073;48.586;12.066;2023-06-10T08:31:06;96226.41;;;23.74;50.84
21821;BME280;11073;48.586;12.066;2023-06-10T08:33:35;96228.47;;;23.94;50.14
21821;BME280;11073;48.586;12.066;2023-06-10T08:36:04;96229.16;;;23.91;49.61
21821;BME280;11073;48.586;12.066;2023-06-10T08:38:32;96226.06;;;23.92;49.45
21821;BME280;11073;48.586;12.066;2023-06-10T08:41:05;96226.06;;;23.92;48.78
21821;BME280;11073;48.586;12.066;2023-06-10T08:43:39;96227.03;;;23.88;48.81
21821;BME280;11073;48.586;12.066;2023-06-10T08:46:10;96210.44;;;23.88;48.46
21821;BME280;11073;48.586;12.066;2023-06-10T08:48:43;96216.78;;;23.88;48.44
21821;BME280;11073;48.586;12.066;2023-06-10T08:51:12;96221.22;;;24.19;48.28
21821;BME280;11073;48.586;12.066;2023-06-10T08:53:48;96227.91;;;24.27;48.42
21821;BME280;11073;48.586;12.066;2023-06-10T08:56:19;96226.34;;;24.46;48.35
21821;BME280;11073;48.586;12.066;2023-06-10T08:58:50;96208.66;;;24.39;47.92
21821;BME280;11073;48.586;12.066;2023-06-10T09:01:19;96230.34;;;24.66;48.06
21821;BME280;11073;48.586;12.066;2023-06-10T09:03:49;96232.47;;;24.90;47.71
21821;BME280;11073;48.586;12.066;2023-06-10T09:06:18;96238.28;;;25.06;47.01
21821;BME280;11073;48.586;12.066;2023-06-10T09:08:47;96229.75;;;25.11;47.08
21821;BME280;11073;48.586;12.066;2023-06-10T09:11:16;96228.59;;;25.12;46.42
21821;BME280;11073;48.586;12.066;2023-06-10T09:13:44;96239.28;;;25.22;46.63
21821;BME280;11073;48.586;12.066;2023-06-10T09:16:15;96237.53;;;25.39;46.54
21821;BME280;11073;48.586;12.066;2023-06-10T09:18:44;96235.97;;;25.50;46.35
21821;BME280;11073;48.586;12.066;2023-06-10T09:21:13;96237.06;;;25.37;46.32
21821;BME280;11073;48.586;12.066;2023-06-10T09:23:42;96232.66;;;25.36;46.25
21821;BME280;11073;48.586;12.066;2023-06-10T09:26:11;96233.59;;;25.40;46.26
21821;BME280;11073;48.586;12.066;2023-06-10T09:28:41;96238.78;;;25.41;46.18
21821;BME280;11073;48.586;12.066;2023-06-10T09:31:11;96231.38;;;25.33;46.04
21821;BME280;11073;48.586;12.066;2023-06-10T09:33:44;96245.16;;;25.42;46.04
21821;BME280;11073;48.586;12.066;2023-06-10T09:36:21;96228.94;;;25.73;45.58
21821;BME280;11073;48.586;12.066;2023-06-10T09:38:50;96231.50;;;26.24;45.12
21821;BME280;11073;48.586;12.066;2023-06-10T09:41:19;96233.72;;;26.79;44.52
21821;BME280;11073;48.586;12.066;2023-06-10T09:43:49;96236.28;;;26.97;43.97
21821;BME280;11073;48.586;12.066;2023-06-10T09:46:19;96226.31;;;27.08;43.75
21821;BME280;11073;48.586;12.066;2023-06-10T09:48:49;96234.13;;;27.30;43.17
21821;BME280;11073;48.586;12.066;2023-06-10T09:51:19;96228.88;;;26.88;42.58
21821;BME280;11073;48.586;12.066;2023-06-10T09:53:48;96238.94;;;26.56;42.96
21821;BME280;11073;48.586;12.066;2023-06-10T09:56:18;96234.53;;;26.55;43.07
21821;BME280;11073;48.586;12.066;2023-06-10T09:58:49;96241.69;;;26.93;42.97
21821;BME280;11073;48.586;12.066;2023-06-10T10:01:21;96246.84;;;27.43;42.57
21821;BME280;11073;48.586;12.066;2023-06-10T10:03:52;96236.78;;;27.39;42.21
21821;BME280;11073;48.586;12.066;2023-06-10T10:06:21;96238.06;;;27.29;42.22
21821;BME280;11073;48.586;12.066;2023-06-10T10:08:50;96234.34;;;27.37;41.85
21821;BME280;11073;48.586;12.066;2023-06-10T10:11:20;96238.41;;;27.40;41.66
21821;BME280;11073;48.586;12.066;2023-06-10T10:13:51;96236.00;;;27.26;41.41
21821;BME280;11073;48.586;12.066;2023-06-10T10:16:23;96242.63;;;26.97;41.63
21821;BME280;11073;48.586;12.066;2023-06-10T10:19:00;96236.03;;;26.77;41.84
21821;BME280;11073;48.586;12.066;2023-06-10T10:21:43;96242.28;;;26.62;42.30
21821;BME280;11073;48.586;12.066;2023-06-10T10:24:16;96248.75;;;26.42;42.41
21821;BME280;11073;48.586;12.066;2023-06-10T10:26:48;96242.34;;;26.17;42.89
21821;BME280;11073;48.586;12.066;2023-06-10T10:29:23;96243.59;;;26.19;43.27
21821;BME280;11073;48.586;12.066;2023-06-10T10:31:54;96244.78;;;26.30;43.39
21821;BME280;11073;48.586;12.066;2023-06-10T10:34:30;96252.88;;;26.35;43.52
21821;BME280;11073;48.586;12.066;2023-06-10T10:36:59;96250.66;;;26.29;43.44
21821;BME280;11073;48.586;12.066;2023-06-10T10:39:29;96240.06;;;26.31;43.59
21821;BME280;11073;48.586;12.066;2023-06-10T10:41:58;96238.91;;;26.32;43.67
21821;BME280;11073;48.586;12.066;2023-06-10T10:44:27;96236.72;;;26.37;43.56
21821;BME280;11073;48.586;12.066;2023-06-10T10:46:56;96236.16;;;26.44;43.55
21821;BME280;11073;48.586;12.066;2023-06-10T10:49:33;96230.84;;;26.63;43.52
21821;BME280;11073;48.586;12.066;2023-06-10T10:52:04;96229.41;;;27.31;42.84
21821;BME280;11073;48.586;12.066;2023-06-10T10:54:36;96216.28;;;27.43;42.05
21821;BME280;11073;48.586;12.066;2023-06-10T10:57:16;96230.47;;;28.10;42.16
21821;BME280;11073;48.586;12.066;2023-06-10T10:59:51;96232.19;;;28.15;41.60
21821;BME280;11073;48.586;12.066;2023-06-10T11:02:37;96237.34;;;28.44;41.04
21821;BME280;11073;48.586;12.066;2023-06-10T11:05:14;96240.38;;;28.87;40.40
21821;BME280;11073;48.586;12.066;2023-06-10T11:07:52;96229.81;;;28.61;39.53
21821;BME280;11073;48.586;12.066;2023-06-10T11:10:29;96243.84;;;28.48;39.79
21821;BME280;11073;48.586;12.066;2023-06-10T11:12:58;96238.72;;;28.07;39.88
21821;BME280;11073;48.586;12.066;2023-06-10T11:15:29;96240.72;;;27.78;40.06
21821;BME280;11073;48.586;12.066;2023-06-10T11:18:22;96229.63;;;27.38;40.60
21821;BME280;11073;48.586;12.066;2023-06-10T11:20:58;96244.16;;;27.07;40.93
21821;BME280;11073;48.586;12.066;2023-06-10T11:23:32;96239.03;;;27.09;41.26
21821;BME280;11073;48.586;12.066;2023-06-10T11:26:15;96234.31;;;27.09;41.26
21821;BME280;11073;48.586;12.066;2023-06-10T11:29:08;96238.38;;;26.87;41.47
21821;BME280;11073;48.586;12.066;2023-06-10T11:31:45;96236.88;;;26.65;42.06
21821;BME280;11073;48.586;12.066;2023-06-10T11:34:15;96237.69;;;26.66;42.21
21821;BME280;11073;48.586;12.066;2023-06-10T11:36:52;96239.50;;;26.50;42.45
21821;BME280;11073;48.586;12.066;2023-06-10T11:39:21;96233.25;;;26.41;42.47
21821;BME280;11073;48.586;12.066;2023-06-10T11:41:53;96232.41;;;26.28;42.98
21821;BME280;11073;48.586;12.066;2023-06-10T11:44:27;96232.25;;;26.45;43.25
21821;BME280;11073;48.586;12.066;2023-06-10T11:46:56;96232.72;;;26.59;43.31
21821;BME280;11073;48.586;12.066;2023-06-10T11:49:25;96233.03;;;26.94;42.89
21821;BME280;11073;48.586;12.066;2023-06-10T11:51:55;96230.00;;;27.24;43.00
21821;BME280;11073;48.586;12.066;2023-06-10T11:54:24;96233.31;;;27.82;42.14
21821;BME280;11073;48.586;12.066;2023-06-10T11:56:57;96238.00;;;28.10;41.19
21821;BME280;11073;48.586;12.066;2023-06-10T11:59:27;96223.84;;;28.15;40.37
21821;BME280;11073;48.586;12.066;2023-06-10T12:01:56;96227.94;;;28.49;40.02
21821;BME280;11073;48.586;12.066;2023-06-10T12:04:25;96232.13;;;28.90;39.55
21821;BME280;11073;48.586;12.066;2023-06-10T12:06:56;96230.19;;;29.45;38.58
21821;BME280;11073;48.586;12.066;2023-06-10T12:09:26;96231.38;;;29.83;38.43
21821;BME280;11073;48.586;12.066;2023-06-10T12:11:58;96230.50;;;29.98;37.39
21821;BME280;11073;48.586;12.066;2023-06-10T12:14:50;96230.34;;;30.30;37.27
21821;BME280;11073;48.586;12.066;2023-06-10T12:17:20;96225.13;;;30.51;37.06
21821;BME280;11073;48.586;12.066;2023-06-10T12:19:50;96219.47;;;30.93;36.69
21821;BME280;11073;48.586;12.066;2023-06-10T12:22:20;96219.38;;;30.90;35.44
21821;BME280;11073;48.586;12.066;2023-06-10T12:24:58;96217.50;;;30.97;34.97
21821;BME280;11073;48.586;12.066;2023-06-10T12:27:28;96212.19;;;30.89;34.78
21821;BME280;11073;48.586;12.066;2023-06-10T12:29:58;96208.09;;;31.09;34.15
21821;BME280;11073;48.586;12.066;2023-06-10T12:32:35;96208.91;;;30.60;33.70
21821;BME280;11073;48.586;12.066;2023-06-10T12:35:05;96209.97;;;29.87;34.23
21821;BME280;11073;48.586;12.066;2023-06-10T12:37:36;96208.97;;;29.56;34.55
21821;BME280;11073;48.586;12.066;2023-06-10T12:40:10;96210.00;;;29.32;35.27
21821;BME280;11073;48.586;12.066;2023-06-10T12:42:39;96204.34;;;29.09;35.45
21821;BME280;11073;48.586;12.066;2023-06-10T12:45:09;96208.56;;;28.88;36.17
21821;BME280;11073;48.586;12.066;2023-06-10T12:47:40;96204.91;;;28.83;36.65
21821;BME280;11073;48.586;12.066;2023-06-10T12:50:09;96202.63;;;28.89;37.06
21821;BME280;11073;48.586;12.066;2023-06-10T12:52:41;96200.69;;;28.74;37.45
21821;BME280;11073;48.586;12.066;2023-06-10T12:55:10;96200.34;;;28.60;37.48
21821;BME280;11073;48.586;12.066;2023-06-10T12:57:48;96206.66;;;28.56;37.67
21821;BME280;11073;48.586;12.066;2023-06-10T13:00:18;96195.88;;;28.55;38.21
21821;BME280;11073;48.586;12.066;2023-06-10T13:02:48;96196.78;;;28.43;38.14
21821;BME280;11073;48.586;12.066;2023-06-10T13:05:17;96195.34;;;28.34;38.59
21821;BME280;11073;48.586;12.066;2023-06-10T13:07:49;96197.38;;;28.52;38.84
21821;BME280;11073;48.586;12.066;2023-06-10T13:10:18;96199.63;;;28.78;38.70
21821;BME280;11073;48.586;12.066;2023-06-10T13:12:52;96203.06;;;29.42;38.76
21821;BME280;11073;48.586;12.066;2023-06-10T13:15:22;96194.19;;;29.75;38.14
21821;BME280;11073;48.586;12.066;2023-06-10T13:17:52;96202.25;;;29.80;37.32
21821;BME280;11073;48.586;12.066;2023-06-10T13:20:21;96195.94;;;30.26;37.29
21821;BME280;11073;48.586;12.066;2023-06-10T13:22:51;96186.72;;;30.22;36.33
21821;BME280;11073;48.586;12.066;2023-06-10T13:25:20;96172.44;;;30.50;36.24
21821;BME280;11073;48.586;12.066;2023-06-10T13:27:49;96183.72;;;30.57;35.16
21821;BME280;11073;48.586;12.066;2023-06-10T13:30:18;96178.41;;;30.06;35.11
21821;BME280;11073;48.586;12.066;2023-06-10T13:32:46;96179.94;;;29.80;35.17
21821;BME280;11073;48.586;12.066;2023-06-10T13:35:15;96182.50;;;29.89;34.93
21821;BME280;11073;48.586;12.066;2023-06-10T13:37:44;96181.94;;;29.80;35.12
21821;BME280;11073;48.586;12.066;2023-06-10T13:40:14;96185.69;;;29.68;35.37
21821;BME280;11073;48.586;12.066;2023-06-10T13:42:43;96177.06;;;29.38;35.28
21821;BME280;11073;48.586;12.066;2023-06-10T13:45:12;96185.84;;;29.01;36.07
21821;BME280;11073;48.586;12.066;2023-06-10T13:47:41;96188.03;;;28.76;36.42
21821;BME280;11073;48.586;12.066;2023-06-10T13:50:10;96189.38;;;28.67;36.86
21821;BME280;11073;48.586;12.066;2023-06-10T13:52:40;96192.56;;;28.49;37.82
21821;BME280;11073;48.586;12.066;2023-06-10T13:55:09;96186.38;;;28.40;37.61
21821;BME280;11073;48.586;12.066;2023-06-10T13:57:40;96185.06;;;28.22;37.57